sensor_id;sensor_type;location;lat;lon;timestamp;P1;durP1;ratioP1;P2;durP2;ratioP2
50695;SDS011;36665;51.786;21.594;2023-12-20T00:02:29;13.30;;;6.80;;
50695;SDS011;36665;51.786;21.594;2023-12-20T00:10:54;14.60;;;7.40;;
50695;SDS011;36665;51.786;21.594;2023-12-20T00:19:20;13.10;;;6.80;;
50695;SDS011;36665;51.786;21.594;2023-12-20T00:27:44;11.70;;;6.40;;
50695;SDS011;36665;51.786;21.594;2023-12-20T00:36:09;12.20;;;6.40;;
50695;SDS011;36665;51.786;21.594;2023-12-20T00:44:33;9.60;;;6.00;;
50695;SDS011;36665;51.786;21.594;2023-12-20T00:52:57;10.80;;;6.90;;
50695;SDS011;36665;51.786;21.594;2023-12-20T01:01:24;13.10;;;7.70;;
50695;SDS011;36665;51.786;21.594;2023-12-20T01:09:51;15.40;;;7.00;;
50695;SDS011;36665;51.786;21.594;2023-12-20T01:18:17;14.70;;;6.80;;
50695;SDS011;36665;51.786;21.594;2023-12-20T01:26:42;18.00;;;7.70;;
50695;SDS011;36665;51.786;21.594;2023-12-20T01:35:07;12.40;;;6.60;;
50695;SDS011;36665;51.786;21.594;2023-12-20T01:43:33;14.60;;;7.60;;
50695;SDS011;36665;51.786;21.594;2023-12-20T01:52:12;14.60;;;7.60;;
50695;SDS011;36665;51.786;21.594;2023-12-20T02:00:37;15.80;;;7.50;;
50695;SDS011;36665;51.786;21.594;2023-12-20T02:09:04;17.10;;;7.80;;
50695;SDS011;36665;51.786;21.594;2023-12-20T02:17:31;15.60;;;8.00;;
50695;SDS011;36665;51.786;21.594;2023-12-20T02:25:57;13.80;;;6.90;;
50695;SDS011;36665;51.786;21.594;2023-12-20T02:34:20;11.70;;;7.30;;
50695;SDS011;36665;51.786;21.594;2023-12-20T02:42:46;13.60;;;7.30;;
50695;SDS011;36665;51.786;21.594;2023-12-20T02:51:10;13.80;;;8.30;;
50695;SDS011;36665;51.786;21.594;2023-12-20T02:59:35;14.70;;;7.40;;
50695;SDS011;36665;51.786;21.594;2023-12-20T03:08:02;12.50;;;6.40;;
50695;SDS011;36665;51.786;21.594;2023-12-20T03:16:26;11.70;;;6.70;;
50695;SDS011;36665;51.786;21.594;2023-12-20T03:24:50;14.70;;;7.10;;
50695;SDS011;36665;51.786;21.594;2023-12-20T03:33:15;10.80;;;7.00;;
50695;SDS011;36665;51.786;21.594;2023-12-20T03:41:38;10.20;;;6.70;;
50695;SDS011;36665;51.786;21.594;2023-12-20T03:50:03;13.50;;;7.00;;
50695;SDS011;36665;51.786;21.594;2023-12-20T03:58:28;12.60;;;7.30;;
50695;SDS011;36665;51.786;21.594;2023-12-20T04:06:54;11.80;;;7.30;;
50695;SDS011;36665;51.786;21.594;2023-12-20T04:15:18;13.40;;;7.50;;
50695;SDS011;36665;51.786;21.594;2023-12-20T04:23:41;12.70;;;7.50;;
50695;SDS011;36665;51.786;21.594;2023-12-20T04:32:05;8.10;;;6.30;;
50695;SDS011;36665;51.786;21.594;2023-12-20T04:40:29;10.50;;;6.00;;
50695;SDS011;36665;51.786;21.594;2023-12-20T04:48:54;8.60;;;6.10;;
50695;SDS011;36665;51.786;21.594;2023-12-20T04:57:19;10.60;;;6.10;;
50695;SDS011;36665;51.786;21.594;2023-12-20T05:05:42;9.40;;;5.40;;
50695;SDS011;36665;51.786;21.594;2023-12-20T05:14:08;7.40;;;4.40;;
50695;SDS011;36665;51.786;21.594;2023-12-20T05:22:35;8.80;;;4.80;;
50695;SDS011;36665;51.786;21.594;2023-12-20T05:31:00;13.00;;;5.50;;
50695;SDS011;36665;51.786;21.594;2023-12-20T05:39:24;8.30;;;5.50;;
50695;SDS011;36665;51.786;21.594;2023-12-20T05:47:50;10.10;;;6.20;;
50695;SDS011;36665;51.786;21.594;2023-12-20T05:56:14;9.80;;;5.90;;
50695;SDS011;36665;51.786;21.594;2023-12-20T06:04:42;16.50;;;8.70;;
50695;SDS011;36665;51.786;21.594;2023-12-20T06:13:07;10.30;;;5.80;;
50695;SDS011;36665;51.786;21.594;2023-12-20T06:21:32;10.40;;;7.10;;
50695;SDS011;36665;51.786;21.594;2023-12-20T06:29:58;7.60;;;4.90;;
50695;SDS011;36665;51.786;21.594;2023-12-20T06:38:23;12.70;;;6.70;;
50695;SDS011;36665;51.786;21.594;2023-12-20T06:46:49;9.90;;;5.30;;
50695;SDS011;36665;51.786;21.594;2023-12-20T06:55:15;10.10;;;6.50;;
50695;SDS011;36665;51.786;21.594;2023-12-20T07:03:41;10.70;;;5.20;;
50695;SDS011;36665;51.786;21.594;2023-12-20T07:12:08;9.20;;;5.40;;
50695;SDS011;36665;51.786;21.594;2023-12-20T07:20:33;7.30;;;5.30;;
50695;SDS011;36665;51.786;21.594;2023-12-20T07:28:57;7.50;;;4.40;;
50695;SDS011;36665;51.786;21.594;2023-12-20T07:37:22;7.70;;;4.40;;
50695;SDS011;36665;51.786;21.594;2023-12-20T07:45:46;10.20;;;3.70;;
50695;SDS011;36665;51.786;21.594;2023-12-20T07:54:11;4.60;;;3.20;;
50695;SDS011;36665;51.786;21.594;2023-12-20T08:02:34;4.80;;;2.80;;
50695;SDS011;36665;51.786;21.594;2023-12-20T08:10:58;4.80;;;3.00;;
50695;SDS011;36665;51.786;21.594;2023-12-20T08:19:24;4.80;;;3.70;;
50695;SDS011;36665;51.786;21.594;2023-12-20T08:27:48;5.20;;;2.70;;
50695;SDS011;36665;51.786;21.594;2023-12-20T08:36:13;6.00;;;2.50;;
50695;SDS011;36665;51.786;21.594;2023-12-20T08:44:41;5.00;;;2.80;;
50695;SDS011;36665;51.786;21.594;2023-12-20T08:53:06;7.50;;;2.90;;
50695;SDS011;36665;51.786;21.594;2023-12-20T09:01:31;6.80;;;3.80;;
50695;SDS011;36665;51.786;21.594;2023-12-20T09:09:57;4.70;;;2.80;;
50695;SDS011;36665;51.786;21.594;2023-12-20T09:18:28;5.80;;;3.30;;
50695;SDS011;36665;51.786;21.594;2023-12-20T09:26:52;5.60;;;2.60;;
50695;SDS011;36665;51.786;21.594;2023-12-20T09:35:18;3.30;;;2.10;;
50695;SDS011;36665;51.786;21.594;2023-12-20T09:43:42;4.90;;;2.80;;
50695;SDS011;36665;51.786;21.594;2023-12-20T09:52:09;7.00;;;2.20;;
50695;SDS011;36665;51.786;21.594;2023-12-20T10:00:34;3.10;;;2.30;;
50695;SDS011;36665;51.786;21.594;2023-12-20T10:08:58;3.80;;;2.10;;
50695;SDS011;36665;51.786;21.594;2023-12-20T10:17:22;2.80;;;2.10;;
50695;SDS011;36665;51.786;21.594;2023-12-20T10:25:56;3.90;;;2.30;;
50695;SDS011;36665;51.786;21.594;2023-12-20T10:34:44;50.50;;;27.10;;
50695;SDS011;36665;51.786;21.594;2023-12-20T10:43:09;2.50;;;2.00;;
50695;SDS011;36665;51.786;21.594;2023-12-20T10:51:34;3.40;;;2.20;;
50695;SDS011;36665;51.786;21.594;2023-12-20T11:00:01;3.30;;;1.80;;
50695;SDS011;36665;51.786;21.594;2023-12-20T11:08:33;2.90;;;2.00;;
50695;SDS011;36665;51.786;21.594;2023-12-20T11:17:33;5.90;;;3.60;;
50695;SDS011;36665;51.786;21.594;2023-12-20T11:25:58;121.60;;;38.10;;
50695;SDS011;36665;51.786;21.594;2023-12-20T11:34:26;450.70;;;107.20;;
50695;SDS011;36665;51.786;21.594;2023-12-20T11:42:50;556.40;;;156.90;;
50695;SDS011;36665;51.786;21.594;2023-12-20T11:51:17;500.90;;;159.10;;
50695;SDS011;36665;51.786;21.594;2023-12-20T11:59:42;360.00;;;113.50;;
50695;SDS011;36665;51.786;21.594;2023-12-20T12:08:06;144.30;;;56.30;;
50695;SDS011;36665;51.786;21.594;2023-12-20T12:16:32;52.50;;;22.00;;
50695;SDS011;36665;51.786;21.594;2023-12-20T12:24:58;60.30;;;24.60;;
50695;SDS011;36665;51.786;21.594;2023-12-20T12:33:33;112.50;;;46.80;;
50695;SDS011;36665;51.786;21.594;2023-12-20T12:41:59;145.90;;;61.80;;
50695;SDS011;36665;51.786;21.594;2023-12-20T12:50:25;21.60;;;12.80;;
50695;SDS011;36665;51.786;21.594;2023-12-20T12:58:52;13.80;;;6.70;;
50695;SDS011;36665;51.786;21.594;2023-12-20T13:07:15;7.50;;;3.70;;
50695;SDS011;36665;51.786;21.594;2023-12-20T13:15:41;9.50;;;4.10;;
50695;SDS011;36665;51.786;21.594;2023-12-20T13:24:05;5.60;;;3.50;;
50695;SDS011;36665;51.786;21.594;2023-12-20T13:32:31;7.40;;;4.50;;
50695;SDS011;36665;51.786;21.594;2023-12-20T13:40:56;10.00;;;4.20;;
50695;SDS011;36665;51.786;21.594;2023-12-20T13:49:21;9.40;;;5.30;;
50695;SDS011;36665;51.786;21.594;2023-12-20T13:57:48;6.30;;;2.70;;
50695;SDS011;36665;51.786;21.594;2023-12-20T14:06:17;8.80;;;3.20;;
50695;SDS011;36665;51.786;21.594;2023-12-20T14:14:42;17.90;;;10.90;;
50695;SDS011;36665;51.786;21.594;2023-12-20T14:23:09;5.20;;;4.90;;
50695;SDS011;36665;51.786;21.594;2023-12-20T14:31:34;4.90;;;2.80;;
50695;SDS011;36665;51.786;21.594;2023-12-20T14:39:58;4.10;;;1.70;;
50695;SDS011;36665;51.786;21.594;2023-12-20T14:48:27;4.30;;;2.10;;
50695;SDS011;36665;51.786;21.594;2023-12-20T14:56:50;7.70;;;3.20;;
50695;SDS011;36665;51.786;21.594;2023-12-20T15:05:16;7.40;;;3.40;;
50695;SDS011;36665;51.786;21.594;2023-12-20T15:13:41;25.80;;;10.80;;
50695;SDS011;36665;51.786;21.594;2023-12-20T15:22:10;30.20;;;17.70;;
50695;SDS011;36665;51.786;21.594;2023-12-20T15:30:35;13.20;;;7.00;;
50695;SDS011;36665;51.786;21.594;2023-12-20T15:39:01;12.30;;;5.20;;
50695;SDS011;36665;51.786;21.594;2023-12-20T15:47:25;11.20;;;4.50;;
50695;SDS011;36665;51.786;21.594;2023-12-20T15:55:52;10.50;;;4.60;;
50695;SDS011;36665;51.786;21.594;2023-12-20T16:04:25;7.10;;;4.70;;
50695;SDS011;36665;51.786;21.594;2023-12-20T16:12:50;8.40;;;4.50;;
50695;SDS011;36665;51.786;21.594;2023-12-20T16:21:15;10.90;;;4.10;;
50695;SDS011;36665;51.786;21.594;2023-12-20T16:29:40;9.20;;;4.50;;
50695;SDS011;36665;51.786;21.594;2023-12-20T16:38:05;8.20;;;3.90;;
50695;SDS011;36665;51.786;21.594;2023-12-20T16:46:31;4.60;;;2.90;;
50695;SDS011;36665;51.786;21.594;2023-12-20T16:54:54;6.90;;;3.60;;
50695;SDS011;36665;51.786;21.594;2023-12-20T17:03:18;6.70;;;3.30;;
50695;SDS011;36665;51.786;21.594;2023-12-20T17:11:49;7.40;;;2.60;;
50695;SDS011;36665;51.786;21.594;2023-12-20T17:20:13;29.80;;;16.30;;
50695;SDS011;36665;51.786;21.594;2023-12-20T17:28:38;68.70;;;23.00;;
50695;SDS011;36665;51.786;21.594;2023-12-20T17:37:03;10.50;;;5.70;;
50695;SDS011;36665;51.786;21.594;2023-12-20T17:45:28;8.00;;;4.80;;
50695;SDS011;36665;51.786;21.594;2023-12-20T17:53:56;9.60;;;4.00;;
50695;SDS011;36665;51.786;21.594;2023-12-20T18:02:27;8.80;;;4.00;;
50695;SDS011;36665;51.786;21.594;2023-12-20T18:10:51;5.00;;;2.80;;
50695;SDS011;36665;51.786;21.594;2023-12-20T18:19:15;5.00;;;2.60;;
50695;SDS011;36665;51.786;21.594;2023-12-20T18:27:42;10.40;;;3.00;;
50695;SDS011;36665;51.786;21.594;2023-12-20T18:36:06;7.90;;;2.70;;
50695;SDS011;36665;51.786;21.594;2023-12-20T18:44:32;4.50;;;2.60;;
50695;SDS011;36665;51.786;21.594;2023-12-20T18:52:57;5.20;;;2.90;;
50695;SDS011;36665;51.786;21.594;2023-12-20T19:01:23;19.70;;;10.10;;
50695;SDS011;36665;51.786;21.594;2023-12-20T19:09:47;5.70;;;3.60;;
50695;SDS011;36665;51.786;21.594;2023-12-20T19:18:14;7.10;;;3.10;;
50695;SDS011;36665;51.786;21.594;2023-12-20T19:26:41;12.20;;;3.80;;
50695;SDS011;36665;51.786;21.594;2023-12-20T19:35:07;7.90;;;3.30;;
50695;SDS011;36665;51.786;21.594;2023-12-20T19:43:32;14.50;;;3.80;;
50695;SDS011;36665;51.786;21.594;2023-12-20T19:51:59;7.30;;;3.20;;
50695;SDS011;36665;51.786;21.594;2023-12-20T20:00:31;6.20;;;3.00;;
50695;SDS011;36665;51.786;21.594;2023-12-20T20:09:08;6.60;;;3.10;;
50695;SDS011;36665;51.786;21.594;2023-12-20T20:17:32;10.90;;;4.20;;
50695;SDS011;36665;51.786;21.594;2023-12-20T20:26:01;7.50;;;3.90;;
50695;SDS011;36665;51.786;21.594;2023-12-20T20:34:26;10.80;;;4.00;;
50695;SDS011;36665;51.786;21.594;2023-12-20T20:42:50;6.90;;;2.90;;
50695;SDS011;36665;51.786;21.594;2023-12-20T20:51:16;6.20;;;1.80;;
50695;SDS011;36665;51.786;21.594;2023-12-20T20:59:43;4.70;;;1.60;;
50695;SDS011;36665;51.786;21.594;2023-12-20T21:08:12;2.90;;;1.30;;
50695;SDS011;36665;51.786;21.594;2023-12-20T21:16:36;7.60;;;1.70;;
50695;SDS011;36665;51.786;21.594;2023-12-20T21:25:02;4.60;;;1.50;;
50695;SDS011;36665;51.786;21.594;2023-12-20T21:33:32;8.10;;;3.10;;
50695;SDS011;36665;51.786;21.594;2023-12-20T21:41:56;3.60;;;1.30;;
50695;SDS011;36665;51.786;21.594;2023-12-20T21:50:22;3.00;;;1.10;;
50695;SDS011;36665;51.786;21.594;2023-12-20T21:58:47;4.20;;;1.50;;
50695;SDS011;36665;51.786;21.594;2023-12-20T22:07:11;6.60;;;1.80;;
50695;SDS011;36665;51.786;21.594;2023-12-20T22:15:36;7.60;;;2.00;;
50695;SDS011;36665;51.786;21.594;2023-12-20T22:24:02;3.40;;;1.40;;
50695;SDS011;36665;51.786;21.594;2023-12-20T22:32:27;4.30;;;1.40;;
50695;SDS011;36665;51.786;21.594;2023-12-20T22:40:53;4.80;;;1.90;;
50695;SDS011;36665;51.786;21.594;2023-12-20T22:49:18;4.80;;;1.80;;
50695;SDS011;36665;51.786;21.594;2023-12-20T22:57:42;6.40;;;2.00;;
50695;SDS011;36665;51.786;21.594;2023-12-20T23:06:07;4.30;;;1.80;;
50695;SDS011;36665;51.786;21.594;2023-12-20T23:14:38;5.50;;;2.10;;
50695;SDS011;36665;51.786;21.594;2023-12-20T23:23:02;4.70;;;1.80;;
50695;SDS011;36665;51.786;21.594;2023-12-20T23:31:29;9.90;;;2.50;;
50695;SDS011;36665;51.786;21.594;2023-12-20T23:39:54;11.80;;;3.00;;
50695;SDS011;36665;51.786;21.594;2023-12-20T23:48:19;10.10;;;3.00;;
50695;SDS011;36665;51.786;21.594;2023-12-20T23:56:45;12.10;;;2.90;;
